createdAt,value
2018-03-23T00:02:18.849Z,13.90
2018-03-23T00:04:51.425Z,14.47
2018-03-23T00:07:23.880Z,14.07
2018-03-23T00:09:56.317Z,15.33
2018-03-23T00:12:28.828Z,14.37
2018-03-23T00:15:02.253Z,12.93
2018-03-23T00:17:35.523Z,11.07
2018-03-23T00:20:08.005Z,11.80
2018-03-23T00:22:40.384Z,13.30
2018-03-23T00:25:13.684Z,12.43
2018-03-23T00:27:46.067Z,13.27
2018-03-23T00:30:18.652Z,14.57
2018-03-23T00:32:52.561Z,13.70
2018-03-23T00:35:25.139Z,16.90
2018-03-23T00:37:58.601Z,12.90
2018-03-23T00:40:31.069Z,15.07
2018-03-23T00:43:03.507Z,15.03
2018-03-23T00:45:36.856Z,16.17
2018-03-23T00:48:10.200Z,18.37
2018-03-23T00:50:43.512Z,15.20
2018-03-23T00:53:16.609Z,15.70
2018-03-23T00:55:49.406Z,13.73
2018-03-23T00:58:21.826Z,16.70
2018-03-23T01:00:55.427Z,16.63
2018-03-23T01:03:27.842Z,16.07
2018-03-23T01:06:00.222Z,16.10
2018-03-23T01:08:33.532Z,16.33
2018-03-23T01:11:06.880Z,17.43
2018-03-23T01:13:40.925Z,15.07
2018-03-23T01:16:13.607Z,14.53
2018-03-23T01:18:47.532Z,15.27
2018-03-23T01:21:21.097Z,13.90
2018-03-23T01:23:53.748Z,18.07
2018-03-23T01:26:26.264Z,17.90
2018-03-23T01:28:59.448Z,15.50
2018-03-23T01:31:33.727Z,15.13
2018-03-23T01:34:06.255Z,17.83
2018-03-23T01:36:38.715Z,17.53
2018-03-23T01:39:11.042Z,18.70
2018-03-23T01:41:43.415Z,17.00
2018-03-23T01:44:15.843Z,17.70
2018-03-23T01:46:49.031Z,17.17
2018-03-23T01:49:22.462Z,17.33
2018-03-23T01:51:55.240Z,14.13
2018-03-23T01:54:27.559Z,17.50
2018-03-23T01:57:00.051Z,14.70
2018-03-23T01:59:33.399Z,15.23
2018-03-23T02:02:05.774Z,16.20
2018-03-23T02:04:38.980Z,20.07
2018-03-23T02:07:12.458Z,18.23
2018-03-23T02:09:45.115Z,16.47
2018-03-23T02:12:18.374Z,15.17
2018-03-23T02:14:50.882Z,15.77
2018-03-23T02:17:23.449Z,19.00
2018-03-23T02:19:55.841Z,16.67
2018-03-23T02:22:29.236Z,17.50
2018-03-23T02:25:03.396Z,18.53
2018-03-23T02:27:36.209Z,18.37
2018-03-23T02:30:09.495Z,15.43
2018-03-23T02:32:41.986Z,17.57
2018-03-23T02:35:14.343Z,17.70
2018-03-23T02:37:47.827Z,16.00
2018-03-23T02:40:20.955Z,19.70
2018-03-23T02:42:54.072Z,18.73
2018-03-23T02:45:26.788Z,17.40
2018-03-23T02:47:59.151Z,19.10
2018-03-23T02:50:32.520Z,16.27
2018-03-23T02:53:05.774Z,18.50
2018-03-23T02:55:38.550Z,15.43
2018-03-23T02:58:11.929Z,20.70
2018-03-23T03:00:44.440Z,14.80
2018-03-23T03:03:16.954Z,13.80
2018-03-23T03:05:49.521Z,14.70
2018-03-23T03:08:23.547Z,17.23
2018-03-23T03:10:56.239Z,14.20
2018-03-23T03:13:29.550Z,15.40
2018-03-23T03:16:01.979Z,18.43
2018-03-23T03:18:36.023Z,16.33
2018-03-23T03:21:08.758Z,17.00
2018-03-23T03:23:41.387Z,18.60
2018-03-23T03:26:15.496Z,18.70
2018-03-23T03:28:48.232Z,14.83
2018-03-23T03:31:20.713Z,16.70
2018-03-23T03:33:54.123Z,20.80
2018-03-23T03:36:26.578Z,15.70
2018-03-23T03:38:59.086Z,15.80
2018-03-23T03:41:32.447Z,20.80
2018-03-23T03:44:04.964Z,15.17
2018-03-23T03:46:38.356Z,19.90
2018-03-23T03:49:10.696Z,18.73
2018-03-23T03:51:43.199Z,18.13
2018-03-23T03:54:15.571Z,16.60
2018-03-23T03:56:48.060Z,17.80
2018-03-23T03:59:20.642Z,16.93
2018-03-23T04:01:53.177Z,17.43
2018-03-23T04:04:27.349Z,20.90
2018-03-23T04:07:00.041Z,20.63
2018-03-23T04:09:33.395Z,19.63
2018-03-23T04:12:05.827Z,19.87
2018-03-23T04:14:39.332Z,18.97
2018-03-23T04:17:12.466Z,19.00
2018-03-23T04:19:44.946Z,18.70
2018-03-23T04:22:18.237Z,15.53
2018-03-23T04:24:51.072Z,18.57
2018-03-23T04:27:25.041Z,19.80
2018-03-23T04:29:58.843Z,16.63
2018-03-23T04:32:31.355Z,19.63
2018-03-23T04:35:03.877Z,18.37
2018-03-23T04:37:36.280Z,20.17
2018-03-23T04:40:08.927Z,16.10
2018-03-23T04:42:42.889Z,18.00
2018-03-23T04:45:15.590Z,18.50
2018-03-23T04:47:48.024Z,15.70
2018-03-23T04:50:21.258Z,18.70
2018-03-23T04:52:54.032Z,18.60
2018-03-23T04:55:27.411Z,19.40
2018-03-23T04:57:59.868Z,23.37
2018-03-23T05:00:33.275Z,18.60
2018-03-23T05:03:06.380Z,18.60
2018-03-23T05:05:39.196Z,17.30
2018-03-23T05:08:12.341Z,16.10
2018-03-23T05:10:45.886Z,15.20
2018-03-23T05:13:18.420Z,21.83
2018-03-23T05:15:51.536Z,16.70
2018-03-23T05:18:24.191Z,18.00
2018-03-23T05:20:56.636Z,17.97
2018-03-23T05:23:29.083Z,18.00
2018-03-23T05:26:01.451Z,17.43
2018-03-23T05:28:34.661Z,17.80
2018-03-23T05:31:07.860Z,17.50
2018-03-23T05:33:41.053Z,20.70
2018-03-23T05:36:13.491Z,17.80
2018-03-23T05:38:46.716Z,15.60
2018-03-23T05:41:19.264Z,16.27
2018-03-23T05:43:52.439Z,20.60
2018-03-23T05:46:25.228Z,19.10
2018-03-23T05:48:59.357Z,17.67
2018-03-23T05:51:31.902Z,20.07
2018-03-23T05:54:04.260Z,17.57
2018-03-23T05:56:36.707Z,18.80
2018-03-23T05:59:09.220Z,21.30
2018-03-23T06:01:43.300Z,19.60
2018-03-23T06:04:16.057Z,19.80
2018-03-23T06:06:48.514Z,19.53
2018-03-23T06:09:22.511Z,16.40
2018-03-23T06:11:56.144Z,15.40
2018-03-23T06:14:28.856Z,17.63
2018-03-23T06:17:01.337Z,15.77
2018-03-23T06:19:33.841Z,17.30
2018-03-23T06:22:06.324Z,21.20
2018-03-23T06:24:38.875Z,19.47
2018-03-23T06:27:11.343Z,19.47
2018-03-23T06:29:43.810Z,17.43
2018-03-23T06:32:16.254Z,16.73
2018-03-23T06:34:49.524Z,20.23
2018-03-23T06:37:22.237Z,17.30
2018-03-23T06:39:55.697Z,20.03
2018-03-23T06:42:28.314Z,17.13
2018-03-23T06:45:01.440Z,21.20
2018-03-23T06:47:33.856Z,19.50
2018-03-23T06:50:06.392Z,19.43
2018-03-23T06:52:40.458Z,16.93
2018-03-23T06:55:13.261Z,19.23
2018-03-23T06:57:45.948Z,16.73
2018-03-23T07:00:19.211Z,15.10
2018-03-23T07:02:51.591Z,18.13
2018-03-23T07:05:24.108Z,15.90
2018-03-23T07:07:56.772Z,18.83
2018-03-23T07:10:30.641Z,17.23
2018-03-23T07:13:03.368Z,15.67
2018-03-23T07:15:43.416Z,14.40
2018-03-23T07:18:16.106Z,17.60
2018-03-23T07:20:48.459Z,18.10
2018-03-23T07:23:20.876Z,17.43
2018-03-23T07:25:53.372Z,17.60
2018-03-23T07:28:25.888Z,18.20
2018-03-23T07:30:59.853Z,16.43
2018-03-23T07:33:32.681Z,20.13
2018-03-23T07:36:05.286Z,17.17
2018-03-23T07:38:38.447Z,16.33
2018-03-23T07:41:10.923Z,15.30
2018-03-23T07:43:43.724Z,16.60
2018-03-23T07:46:16.728Z,20.20
2018-03-23T07:48:50.017Z,20.83
2018-03-23T07:51:22.504Z,17.80
2018-03-23T07:53:55.932Z,17.80
2018-03-23T07:56:28.364Z,18.57
2018-03-23T07:59:00.908Z,21.03
2018-03-23T08:01:34.215Z,19.80
2018-03-23T08:04:06.633Z,19.43
2018-03-23T08:06:39.109Z,18.77
2018-03-23T08:09:19.228Z,19.20
2018-03-23T08:11:51.998Z,15.90
2018-03-23T08:14:24.502Z,16.47
2018-03-23T08:16:56.970Z,16.30
2018-03-23T08:19:29.440Z,15.13
2018-03-23T08:22:02.861Z,17.70
2018-03-23T08:24:36.474Z,18.13
2018-03-23T08:27:09.399Z,16.87
2018-03-23T08:29:41.794Z,21.10
2018-03-23T08:32:15.774Z,17.70
2018-03-23T08:34:49.102Z,17.20
2018-03-23T08:37:22.571Z,17.87
2018-03-23T08:39:55.171Z,18.70
2018-03-23T08:42:27.526Z,13.90
2018-03-23T08:45:00.161Z,18.80
2018-03-23T08:47:33.899Z,15.00
2018-03-23T08:50:07.358Z,17.90
2018-03-23T08:52:39.953Z,17.97
2018-03-23T08:55:13.310Z,17.57
2018-03-23T08:57:46.574Z,16.90
2018-03-23T09:00:19.325Z,17.10
2018-03-23T09:02:51.770Z,18.30
2018-03-23T09:05:25.186Z,16.10
2018-03-23T09:07:57.676Z,16.37
2018-03-23T09:10:30.965Z,15.53
2018-03-23T09:13:04.261Z,16.30
2018-03-23T09:15:37.591Z,17.80
2018-03-23T09:18:10.902Z,17.33
2018-03-23T09:20:43.427Z,15.07
2018-03-23T09:23:16.669Z,18.37
2018-03-23T09:25:49.105Z,17.10
2018-03-23T09:28:22.386Z,15.33
2018-03-23T09:30:54.877Z,14.73
2018-03-23T09:33:27.231Z,15.77
2018-03-23T09:36:00.533Z,16.67
2018-03-23T09:38:33.383Z,16.80
2018-03-23T09:41:06.562Z,17.53
2018-03-23T09:43:39.891Z,17.33
2018-03-23T09:46:13.534Z,16.20
2018-03-23T09:48:46.927Z,16.47
2018-03-23T09:51:19.425Z,15.37
2018-03-23T09:53:53.624Z,16.80
2018-03-23T09:56:27.076Z,13.07
2018-03-23T09:58:59.511Z,13.83
2018-03-23T10:01:32.656Z,14.00
2018-03-23T10:04:06.088Z,13.50
2018-03-23T10:06:38.614Z,14.70
2018-03-23T10:09:10.992Z,15.53
2018-03-23T10:11:44.386Z,14.90
2018-03-23T10:14:16.814Z,15.73
2018-03-23T10:16:49.942Z,14.40
2018-03-23T10:19:22.572Z,14.27
2018-03-23T10:21:55.982Z,15.10
2018-03-23T10:24:28.344Z,13.10
2018-03-23T10:27:01.532Z,15.00
2018-03-23T10:29:34.321Z,13.63
2018-03-23T10:32:09.508Z,14.83
2018-03-23T10:34:42.302Z,11.97
2018-03-23T10:37:16.300Z,14.07
2018-03-23T10:39:50.158Z,12.33
2018-03-23T10:42:22.886Z,10.97
2018-03-23T10:44:56.220Z,12.47
2018-03-23T10:47:29.394Z,11.57
2018-03-23T10:50:02.770Z,12.67
2018-03-23T10:52:35.539Z,12.17
2018-03-23T10:55:08.792Z,12.90
2018-03-23T10:57:41.164Z,13.20
2018-03-23T11:00:14.453Z,13.37
2018-03-23T11:02:53.613Z,14.03
2018-03-23T11:05:26.775Z,12.77
2018-03-23T11:08:00.351Z,11.70
2018-03-23T11:10:32.780Z,13.33
2018-03-23T11:13:05.932Z,12.30
2018-03-23T11:15:38.607Z,13.30
2018-03-23T11:18:11.148Z,12.53
2018-03-23T11:20:44.414Z,12.60
2018-03-23T11:23:17.680Z,12.37
2018-03-23T11:25:50.948Z,12.37
2018-03-23T11:28:23.547Z,13.10
2018-03-23T11:30:56.624Z,11.10
2018-03-23T11:33:30.100Z,11.30
2018-03-23T11:36:03.342Z,14.83
2018-03-23T11:38:36.711Z,11.80
2018-03-23T11:41:09.990Z,11.10
2018-03-23T11:43:42.784Z,9.53
2018-03-23T11:46:15.080Z,10.20
2018-03-23T11:48:47.541Z,12.90
2018-03-23T11:51:20.856Z,12.10
2018-03-23T11:53:54.148Z,12.27
2018-03-23T11:56:27.576Z,10.10
2018-03-23T11:59:00.757Z,10.43
2018-03-23T12:01:34.873Z,12.30
2018-03-23T12:04:08.112Z,12.73
2018-03-23T12:06:40.570Z,11.20
2018-03-23T12:09:13.172Z,11.93
2018-03-23T12:11:45.651Z,11.97
2018-03-23T12:14:19.837Z,11.20
2018-03-23T12:16:52.407Z,9.10
2018-03-23T12:19:24.758Z,10.80
2018-03-23T12:21:58.010Z,10.30
2018-03-23T12:24:30.709Z,10.77
2018-03-23T12:27:04.082Z,10.50
2018-03-23T12:29:37.170Z,13.23
2018-03-23T12:32:10.357Z,8.17
2018-03-23T12:34:43.770Z,10.17
2018-03-23T12:37:16.327Z,10.07
2018-03-23T12:39:48.678Z,12.50
2018-03-23T12:42:21.079Z,13.10
2018-03-23T12:44:53.790Z,12.77
2018-03-23T12:47:26.112Z,13.10
2018-03-23T12:49:58.488Z,12.67
2018-03-23T12:52:30.786Z,13.10
2018-03-23T12:55:03.509Z,10.70
2018-03-23T12:57:35.872Z,11.43
2018-03-23T13:00:08.411Z,12.33
2018-03-23T13:02:42.410Z,13.00
2018-03-23T13:05:15.040Z,13.50
2018-03-23T13:07:48.097Z,13.30
2018-03-23T13:10:21.414Z,13.53
2018-03-23T13:12:54.193Z,13.83
2018-03-23T13:15:27.492Z,14.13
2018-03-23T13:18:00.707Z,12.90
2018-03-23T13:20:33.675Z,13.40
2018-03-23T13:23:07.483Z,12.37
2018-03-23T13:25:40.055Z,11.40
2018-03-23T13:28:13.374Z,14.87
2018-03-23T13:30:45.730Z,11.60
2018-03-23T13:33:18.382Z,13.37
2018-03-23T13:35:50.858Z,12.37
2018-03-23T13:38:23.405Z,11.13
2018-03-23T13:40:56.700Z,10.07
2018-03-23T13:43:30.755Z,11.10
2018-03-23T13:46:04.300Z,12.87
2018-03-23T13:48:37.798Z,14.50
2018-03-23T13:51:10.512Z,14.40
2018-03-23T13:53:43.017Z,11.67
2018-03-23T13:56:16.437Z,13.40
2018-03-23T13:58:55.900Z,12.53
2018-03-23T14:01:35.327Z,13.07
2018-03-23T14:04:08.595Z,11.83
2018-03-23T14:06:41.925Z,10.73
2018-03-23T14:09:14.552Z,11.20
2018-03-23T14:11:46.921Z,13.17
2018-03-23T14:14:19.479Z,11.07
2018-03-23T14:16:51.937Z,12.00
2018-03-23T14:19:24.375Z,11.13
2018-03-23T14:21:56.713Z,10.07
2018-03-23T14:24:30.735Z,10.40
2018-03-23T14:27:03.368Z,10.17
2018-03-23T14:29:37.522Z,12.00
2018-03-23T14:32:10.201Z,8.70
2018-03-23T14:34:43.463Z,9.17
2018-03-23T14:37:17.040Z,10.23
2018-03-23T14:39:51.024Z,10.37
2018-03-23T14:42:23.739Z,9.63
2018-03-23T14:44:56.754Z,9.63
2018-03-23T14:47:30.096Z,8.97
2018-03-23T14:50:03.441Z,9.50
2018-03-23T14:52:35.915Z,8.43
2018-03-23T14:55:08.303Z,9.77
2018-03-23T14:57:40.807Z,9.33
2018-03-23T15:00:14.924Z,8.37
2018-03-23T15:02:47.654Z,9.27
2018-03-23T15:05:20.857Z,7.20
2018-03-23T15:07:54.107Z,8.23
2018-03-23T15:10:27.423Z,7.33
2018-03-23T15:13:00.810Z,8.13
2018-03-23T15:15:34.068Z,9.10
2018-03-23T15:18:06.872Z,8.27
2018-03-23T15:20:39.311Z,8.77
2018-03-23T15:23:12.460Z,9.20
2018-03-23T15:25:45.061Z,8.40
2018-03-23T15:28:17.517Z,8.10
2018-03-23T15:30:50.883Z,8.63
2018-03-23T15:33:23.649Z,8.47
2018-03-23T15:35:56.901Z,6.37
2018-03-23T15:38:29.555Z,7.13
2018-03-23T15:41:03.016Z,7.20
2018-03-23T15:43:35.469Z,7.10
2018-03-23T15:46:08.563Z,7.57
2018-03-23T15:48:41.521Z,8.07
2018-03-23T15:51:15.496Z,7.53
2018-03-23T15:53:49.036Z,6.60
2018-03-23T15:56:21.732Z,6.33
2018-03-23T15:58:55.074Z,5.33
2018-03-23T16:01:28.363Z,6.83
2018-03-23T16:04:01.133Z,7.90
2018-03-23T16:06:33.566Z,6.30
2018-03-23T16:09:06.048Z,6.60
2018-03-23T16:11:40.011Z,7.30
2018-03-23T16:14:12.736Z,8.03
2018-03-23T16:16:46.042Z,6.77
2018-03-23T16:19:18.448Z,6.00
2018-03-23T16:21:52.456Z,7.67
2018-03-23T16:24:31.911Z,9.17
2018-03-23T16:27:04.442Z,8.10
2018-03-23T16:29:36.928Z,9.53
2018-03-23T16:32:10.322Z,9.60
2018-03-23T16:34:43.765Z,9.03
2018-03-23T16:37:16.203Z,7.30
2018-03-23T16:39:48.598Z,9.20
2018-03-23T16:42:21.301Z,7.07
2018-03-23T16:44:54.868Z,9.20
2018-03-23T16:47:28.062Z,7.47
2018-03-23T16:50:00.467Z,8.30
2018-03-23T16:52:32.884Z,8.90
2018-03-23T16:55:05.369Z,8.70
2018-03-23T16:57:38.719Z,9.60
2018-03-23T17:00:11.146Z,9.03
2018-03-23T17:02:43.610Z,10.20
2018-03-23T17:05:16.104Z,9.70
2018-03-23T17:07:48.628Z,8.10
2018-03-23T17:10:22.012Z,7.23
2018-03-23T17:12:56.016Z,8.57
2018-03-23T17:15:28.738Z,8.07
2018-03-23T17:18:01.206Z,9.23
2018-03-23T17:20:35.328Z,8.33
2018-03-23T17:23:07.858Z,8.60
2018-03-23T17:25:40.242Z,8.40
2018-03-23T17:28:14.285Z,9.03
2018-03-23T17:30:47.025Z,8.60
2018-03-23T17:33:20.379Z,8.20
2018-03-23T17:35:53.566Z,7.80
2018-03-23T17:38:26.956Z,7.00
2018-03-23T17:40:59.649Z,9.77
2018-03-23T17:43:32.011Z,9.37
2018-03-23T17:46:05.290Z,8.60
2018-03-23T17:48:38.538Z,11.27
2018-03-23T17:51:11.205Z,11.10
2018-03-23T17:53:43.594Z,13.60
2018-03-23T17:56:17.010Z,10.80
2018-03-23T17:58:49.560Z,8.40
2018-03-23T18:01:23.807Z,8.53
2018-03-23T18:03:56.224Z,8.90
2018-03-23T18:06:30.144Z,7.43
2018-03-23T18:09:03.025Z,9.23
2018-03-23T18:11:36.433Z,8.13
2018-03-23T18:14:10.521Z,8.10
2018-03-23T18:16:43.228Z,9.13
2018-03-23T18:19:16.567Z,9.87
2018-03-23T18:21:49.107Z,10.00
2018-03-23T18:24:21.516Z,8.53
2018-03-23T18:26:55.715Z,9.70
2018-03-23T18:29:28.379Z,9.13
2018-03-23T18:32:00.794Z,11.10
2018-03-23T18:34:33.989Z,10.67
2018-03-23T18:37:06.743Z,8.20
2018-03-23T18:39:39.214Z,9.70
2018-03-23T18:42:12.449Z,9.60
2018-03-23T18:44:45.162Z,9.40
2018-03-23T18:47:17.586Z,11.80
2018-03-23T18:49:50.191Z,11.13
2018-03-23T18:52:23.486Z,11.53
2018-03-23T18:54:56.918Z,11.07
2018-03-23T18:57:30.355Z,8.47
2018-03-23T19:00:03.662Z,11.97
2018-03-23T19:02:37.074Z,10.10
2018-03-23T19:05:10.328Z,10.60
2018-03-23T19:07:43.621Z,9.93
2018-03-23T19:10:17.223Z,10.43
2018-03-23T19:12:50.754Z,11.00
2018-03-23T19:15:24.153Z,9.73
2018-03-23T19:17:57.482Z,9.63
2018-03-23T19:20:29.867Z,10.20
2018-03-23T19:23:02.368Z,9.73
2018-03-23T19:25:36.712Z,10.60
2018-03-23T19:28:10.934Z,10.73
2018-03-23T19:30:44.131Z,10.27
2018-03-23T19:33:16.937Z,11.40
2018-03-23T19:35:49.439Z,9.67
2018-03-23T19:38:21.894Z,14.10
2018-03-23T19:40:55.160Z,14.10
2018-03-23T19:43:27.693Z,15.27
2018-03-23T19:46:00.032Z,13.37
2018-03-23T19:48:34.137Z,16.70
2018-03-23T19:51:06.703Z,14.93
2018-03-23T19:53:39.989Z,16.30
2018-03-23T19:56:13.947Z,14.33
2018-03-23T19:58:46.556Z,10.67
2018-03-23T20:01:19.949Z,13.17
2018-03-23T20:03:53.296Z,13.27
2018-03-23T20:06:26.631Z,13.90
2018-03-23T20:08:59.097Z,13.43
2018-03-23T20:11:31.503Z,12.90
2018-03-23T20:14:09.881Z,12.33
2018-03-23T20:16:42.499Z,13.77
2018-03-23T20:19:14.996Z,12.70
2018-03-23T20:21:47.497Z,12.30
2018-03-23T20:24:26.794Z,12.90
2018-03-23T20:27:02.105Z,13.70
2018-03-23T20:29:34.630Z,15.80
2018-03-23T20:32:14.004Z,14.17
2018-03-23T20:34:47.223Z,11.83
2018-03-23T20:37:19.692Z,11.90
2018-03-23T20:39:52.103Z,12.83
2018-03-23T20:42:25.371Z,11.37
2018-03-23T20:44:57.942Z,10.63
2018-03-23T20:47:31.295Z,10.77
2018-03-23T20:50:05.223Z,11.87
2018-03-23T20:52:38.484Z,10.80
2018-03-23T20:55:11.162Z,10.17
2018-03-23T20:57:45.351Z,11.67
2018-03-23T21:00:17.993Z,10.57
2018-03-23T21:02:51.203Z,11.20
2018-03-23T21:05:23.724Z,11.50
2018-03-23T21:07:56.284Z,11.20
2018-03-23T21:10:29.723Z,9.47
2018-03-23T21:13:03.041Z,8.57
2018-03-23T21:15:36.410Z,11.20
2018-03-23T21:18:09.718Z,11.60
2018-03-23T21:20:42.955Z,12.60
2018-03-23T21:23:15.506Z,12.40
2018-03-23T21:25:47.923Z,10.30
2018-03-23T21:28:21.024Z,11.53
2018-03-23T21:30:53.820Z,12.23
2018-03-23T21:33:27.047Z,12.13
2018-03-23T21:35:59.815Z,11.63
2018-03-23T21:38:32.997Z,10.27
2018-03-23T21:41:05.834Z,10.30
2018-03-23T21:43:38.209Z,9.20
2018-03-23T21:46:10.775Z,11.50
2018-03-23T21:48:43.124Z,9.20
2018-03-23T21:51:15.607Z,11.00
2018-03-23T21:53:48.756Z,10.00
2018-03-23T21:56:21.311Z,11.33
2018-03-23T21:58:53.640Z,10.43
2018-03-23T22:01:27.372Z,11.27
2018-03-23T22:04:01.180Z,10.80
2018-03-23T22:06:33.883Z,10.30
2018-03-23T22:09:06.353Z,12.17
2018-03-23T22:11:38.760Z,11.23
2018-03-23T22:14:11.292Z,11.90
2018-03-23T22:16:44.576Z,11.50
2018-03-23T22:19:17.920Z,12.13
2018-03-23T22:21:50.530Z,11.07
2018-03-23T22:24:22.955Z,10.30
2018-03-23T22:26:56.196Z,10.80
2018-03-23T22:29:28.753Z,14.13
2018-03-23T22:32:01.323Z,13.00
2018-03-23T22:34:33.635Z,12.37
2018-03-23T22:37:06.161Z,11.13
2018-03-23T22:39:38.574Z,11.73
2018-03-23T22:42:11.861Z,10.30
2018-03-23T22:44:44.500Z,10.90
2018-03-23T22:47:16.989Z,10.93
2018-03-23T22:49:50.191Z,8.43
2018-03-23T22:52:22.789Z,14.20
2018-03-23T22:54:55.930Z,12.37
2018-03-23T22:57:29.407Z,12.20
2018-03-23T23:00:01.980Z,11.20
2018-03-23T23:02:35.279Z,11.97
2018-03-23T23:05:07.742Z,10.00
2018-03-23T23:07:40.174Z,12.40
2018-03-23T23:10:12.490Z,10.30
2018-03-23T23:12:46.575Z,10.37
2018-03-23T23:15:19.194Z,12.90
2018-03-23T23:17:51.606Z,12.13
2018-03-23T23:20:24.925Z,12.27
2018-03-23T23:22:57.561Z,12.40
2018-03-23T23:25:30.787Z,11.80
2018-03-23T23:28:03.685Z,10.77
2018-03-23T23:30:36.018Z,10.50
2018-03-23T23:33:08.487Z,8.60
2018-03-23T23:35:40.839Z,9.47
2018-03-23T23:38:13.335Z,10.73
2018-03-23T23:40:45.774Z,11.57
2018-03-23T23:43:18.224Z,10.33
2018-03-23T23:45:51.395Z,10.07
2018-03-23T23:48:24.007Z,12.07
2018-03-23T23:50:56.603Z,10.40
2018-03-23T23:53:29.964Z,10.03
2018-03-23T23:56:03.308Z,9.93
2018-03-23T23:58:35.867Z,9.80
